Time;durP1;ratioP1;P1;durP2;ratioP2;P2;SDS_P1;SDS_P2;PMS_P1;PMS_P2;Temp;Humidity;BMP_temperature;BMP_pressure;BME280_temperature;BME280_humidity;BME280_pressure;Samples;Min_cycle;Max_cycle;Signal;HPM_P1;HPM_P2
2021/01/31 00:00:21;;;;;;;10.95;8.93;;;6.90;79.20;;;;;;5089058;28;20412;-39
2021/01/31 00:02:47;;;;;;;11.45;8.13;;;6.90;79.20;;;;;;5091738;28;20051;-40
2021/01/31 00:05:13;;;;;;;13.25;9.00;;;6.90;79.20;;;;;;5091051;28;20044;-40
2021/01/31 00:07:39;;;;;;;12.77;8.82;;;6.90;79.20;;;;;;5091724;28;20048;-39
2021/01/31 00:10:06;;;;;;;12.18;9.25;;;6.90;79.20;;;;;;5091716;28;20074;-41
2021/01/31 00:12:32;;;;;;;12.45;8.90;;;6.90;79.20;;;;;;5091502;28;20484;-40
2021/01/31 00:14:58;;;;;;;13.93;9.93;;;6.90;79.20;;;;;;5091883;28;20101;-41
2021/01/31 00:17:24;;;;;;;12.90;9.38;;;6.90;79.20;;;;;;5090818;28;20044;-39
2021/01/31 00:19:50;;;;;;;12.90;9.82;;;6.90;79.20;;;;;;5091187;28;20419;-39
2021/01/31 00:22:16;;;;;;;13.38;8.93;;;6.90;79.20;;;;;;5091381;28;20041;-40
2021/01/31 00:24:42;;;;;;;13.80;10.05;;;6.90;79.20;;;;;;5091733;28;20072;-40
2021/01/31 00:27:07;;;;;;;13.00;8.98;;;6.90;79.20;;;;;;5091582;28;20039;-39
2021/01/31 00:29:33;;;;;;;12.95;9.07;;;6.90;79.20;;;;;;5091393;28;20078;-40
2021/01/31 00:31:59;;;;;;;11.73;8.60;;;6.90;79.20;;;;;;5091131;28;20082;-39
2021/01/31 00:34:25;;;;;;;13.05;9.38;;;6.90;79.20;;;;;;5091781;28;20040;-39
2021/01/31 00:36:50;;;;;;;12.27;8.82;;;6.90;79.20;;;;;;5091232;28;20056;-39
2021/01/31 00:39:16;;;;;;;14.40;9.73;;;6.90;79.30;;;;;;5091510;28;20051;-38
2021/01/31 00:41:43;;;;;;;13.20;9.75;;;6.90;79.20;;;;;;5091454;28;20048;-40
2021/01/31 00:44:09;;;;;;;13.15;8.80;;;6.90;79.30;;;;;;5091355;28;20044;-42
2021/01/31 00:46:40;;;;;;;14.82;9.88;;;6.90;79.30;;;;;;5091626;28;20127;-41
2021/01/31 00:49:07;;;;;;;12.23;8.95;;;6.90;79.30;;;;;;5091443;28;20032;-39
2021/01/31 00:51:33;;;;;;;12.32;8.88;;;6.90;79.30;;;;;;5091197;28;20415;-40
2021/01/31 00:53:59;;;;;;;14.68;9.68;;;6.90;79.30;;;;;;5091410;28;20040;-40
2021/01/31 00:56:25;;;;;;;12.60;9.15;;;6.90;79.30;;;;;;5091867;28;20048;-40
2021/01/31 00:58:51;;;;;;;15.05;9.70;;;6.90;79.30;;;;;;5091363;28;20077;-41
2021/01/31 01:01:18;;;;;;;14.43;10.55;;;6.90;79.30;;;;;;5091300;28;20036;-41
2021/01/31 01:03:44;;;;;;;16.40;10.48;;;6.90;79.40;;;;;;5094838;28;20059;-38
2021/01/31 01:06:10;;;;;;;15.48;10.13;;;6.80;79.20;;;;;;5094775;28;20039;-39
2021/01/31 01:08:36;;;;;;;14.18;9.30;;;6.80;79.30;;;;;;5092753;28;20476;-39
2021/01/31 01:11:03;;;;;;;16.55;10.45;;;6.90;79.40;;;;;;5094948;28;20047;-40
2021/01/31 01:13:29;;;;;;;15.95;9.85;;;6.80;79.30;;;;;;5095245;28;20441;-40
2021/01/31 01:15:55;;;;;;;15.10;9.73;;;6.90;79.30;;;;;;5094755;28;20157;-39
2021/01/31 01:18:21;;;;;;;16.73;10.18;;;6.90;79.30;;;;;;5094831;28;20150;-39
2021/01/31 01:20:48;;;;;;;13.02;8.80;;;6.80;79.30;;;;;;5094323;28;20058;-39
2021/01/31 01:23:14;;;;;;;15.80;10.40;;;6.90;79.40;;;;;;5094860;28;20044;-40
2021/01/31 01:25:39;;;;;;;15.90;10.23;;;6.80;79.30;;;;;;5094795;28;20055;-39
2021/01/31 01:28:05;;;;;;;15.48;9.93;;;6.80;79.30;;;;;;5094629;28;20046;-41
2021/01/31 01:30:32;;;;;;;14.07;9.57;;;6.80;79.30;;;;;;5093995;28;20044;-39
2021/01/31 01:32:59;;;;;;;17.08;10.45;;;6.80;79.30;;;;;;5094503;28;20062;-39
2021/01/31 01:35:25;;;;;;;16.85;10.10;;;6.80;79.30;;;;;;5094280;28;20079;-43
2021/01/31 01:37:52;;;;;;;15.38;9.23;;;6.80;79.30;;;;;;5094354;28;20074;-39
2021/01/31 01:40:26;;;;;;;16.45;10.30;;;6.80;79.30;;;;;;5094604;28;20036;-40
2021/01/31 01:42:52;;;;;;;15.25;10.52;;;6.80;79.30;;;;;;5094407;28;20151;-40
2021/01/31 01:45:20;;;;;;;15.70;10.73;;;6.80;79.30;;;;;;5094371;28;20075;-37
2021/01/31 01:47:48;;;;;;;13.25;9.23;;;6.80;79.40;;;;;;5094298;28;20040;-40
2021/01/31 01:50:22;;;;;;;15.77;9.95;;;6.80;79.40;;;;;;5094043;28;20044;-40
2021/01/31 01:52:48;;;;;;;17.60;11.05;;;6.80;79.40;;;;;;5093957;28;20051;-39
2021/01/31 01:55:17;;;;;;;16.60;9.68;;;6.80;79.40;;;;;;5094417;28;20036;-39
2021/01/31 01:57:49;;;;;;;15.40;10.55;;;6.80;79.40;;;;;;5094053;28;20129;-41
2021/01/31 02:00:16;;;;;;;16.08;10.60;;;6.80;79.40;;;;;;5093939;28;20051;-40
2021/01/31 02:02:50;;;;;;;16.88;10.18;;;6.80;79.40;;;;;;5094206;28;20185;-40
2021/01/31 02:05:16;;;;;;;15.63;10.80;;;6.80;79.40;;;;;;5092948;28;20055;-40
2021/01/31 02:07:43;;;;;;;16.10;9.75;;;6.80;79.40;;;;;;5093371;28;20055;-39
2021/01/31 02:10:11;;;;;;;15.80;10.27;;;6.80;79.40;;;;;;5094067;28;20044;-40
2021/01/31 02:12:38;;;;;;;18.40;11.07;;;6.80;79.40;;;;;;5093540;28;20145;-38
2021/01/31 02:15:06;;;;;;;14.25;9.95;;;6.80;79.40;;;;;;5094058;28;20162;-39
2021/01/31 02:17:44;;;;;;;15.18;9.90;;;6.80;79.40;;;;;;5093266;28;20408;-42
2021/01/31 02:20:26;;;;;;;14.98;10.35;;;6.80;79.40;;;;;;5093259;28;20098;-39
2021/01/31 02:23:38;;;;;;;15.40;10.70;;;6.80;79.40;;;;;;5092841;28;20048;-40
2021/01/31 02:26:14;;;;;;;15.65;10.32;;;6.80;79.40;;;;;;5092014;28;20093;-40
2021/01/31 02:29:04;;;;;;;17.48;10.20;;;6.80;79.50;;;;;;5093951;28;20058;-39
2021/01/31 02:32:03;;;;;;;15.32;9.90;;;6.80;79.40;;;;;;5092652;28;20051;-37
2021/01/31 02:34:56;;;;;;;20.08;11.38;;;6.80;79.40;;;;;;5093492;28;20458;-40
2021/01/31 02:37:31;;;;;;;16.67;10.27;;;6.80;79.50;;;;;;5091581;28;20453;-38
2021/01/31 02:40:11;;;;;;;16.13;10.50;;;6.80;79.40;;;;;;5090283;28;20421;-38
2021/01/31 02:42:56;;;;;;;16.83;10.77;;;6.80;79.40;;;;;;5090620;28;20044;-38
2021/01/31 02:45:33;;;;;;;15.55;10.32;;;6.80;79.40;;;;;;5091622;28;20093;-42
2021/01/31 02:48:10;;;;;;;15.65;9.77;;;6.70;79.40;;;;;;5090988;28;20102;-41
2021/01/31 02:50:48;;;;;;;16.38;10.00;;;6.80;79.50;;;;;;5090124;28;20075;-39
2021/01/31 02:53:41;;;;;;;18.50;10.43;;;6.80;79.50;;;;;;5093246;28;20097;-40
2021/01/31 02:56:15;;;;;;;18.38;11.52;;;6.70;79.40;;;;;;5040212;28;20056;-41
2021/01/31 02:58:53;;;;;;;15.00;10.15;;;6.70;79.40;;;;;;5039711;28;20057;-39
2021/01/31 03:01:38;;;;;;;14.15;10.00;;;6.70;79.40;;;;;;5041006;28;20046;-41
2021/01/31 03:04:15;;;;;;;17.35;10.65;;;6.70;79.40;;;;;;5042541;28;20052;-39
2021/01/31 03:06:58;;;;;;;16.02;9.60;;;6.70;79.40;;;;;;5038805;28;20046;-39
2021/01/31 03:09:36;;;;;;;17.58;10.82;;;6.70;79.40;;;;;;5023959;28;20056;-39
2021/01/31 03:12:09;;;;;;;17.63;10.75;;;6.70;79.50;;;;;;5041756;28;20504;-39
2021/01/31 03:14:39;;;;;;;15.27;9.70;;;6.70;79.40;;;;;;5039352;28;20076;-39
2021/01/31 03:17:23;;;;;;;14.35;9.55;;;6.70;79.40;;;;;;5040293;28;20041;-40
2021/01/31 03:20:01;;;;;;;16.10;10.57;;;6.70;79.50;;;;;;5038987;28;20045;-38
2021/01/31 03:22:34;;;;;;;17.25;10.48;;;6.70;79.40;;;;;;5042032;28;20045;-39
2021/01/31 03:25:12;;;;;;;15.07;9.93;;;6.70;79.40;;;;;;5039173;28;20502;-37
2021/01/31 03:27:41;;;;;;;17.30;10.23;;;6.70;79.40;;;;;;5037771;28;20108;-40
2021/01/31 03:30:10;;;;;;;14.48;9.50;;;6.70;79.40;;;;;;5041416;28;20494;-39
2021/01/31 03:32:55;;;;;;;18.65;10.40;;;6.70;79.40;;;;;;5056976;28;20416;-37
2021/01/31 03:35:40;;;;;;;16.13;9.93;;;6.70;79.40;;;;;;5089982;28;20554;-38
2021/01/31 03:38:28;;;;;;;15.40;9.73;;;6.70;79.40;;;;;;5090926;28;20204;-40
2021/01/31 03:41:04;;;;;;;15.07;9.93;;;6.70;79.40;;;;;;5091641;28;20040;-40
2021/01/31 03:43:30;;;;;;;17.40;10.65;;;6.70;79.40;;;;;;5091888;28;20044;-38
2021/01/31 03:46:04;;;;;;;15.85;10.25;;;6.70;79.40;;;;;;5092248;28;20044;-39
2021/01/31 03:48:36;;;;;;;16.08;9.85;;;6.70;79.40;;;;;;5092287;28;20052;-40
2021/01/31 03:51:02;;;;;;;15.90;10.10;;;6.70;79.40;;;;;;5089836;28;20040;-43
2021/01/31 03:53:27;;;;;;;14.85;9.23;;;6.70;79.40;;;;;;5091527;28;20046;-39
2021/01/31 03:55:54;;;;;;;15.32;9.68;;;6.70;79.30;;;;;;5091757;28;20135;-39
2021/01/31 03:58:23;;;;;;;16.42;10.50;;;6.70;79.40;;;;;;5092051;28;20117;-42
2021/01/31 04:00:57;;;;;;;14.75;9.45;;;6.70;79.40;;;;;;5092242;28;20071;-41
2021/01/31 04:03:50;;;;;;;17.17;10.45;;;6.70;79.40;;;;;;5089999;28;20081;-40
2021/01/31 04:06:19;;;;;;;16.92;9.82;;;6.70;79.30;;;;;;5090775;28;20063;-40
2021/01/31 04:08:51;;;;;;;15.13;10.35;;;6.70;79.30;;;;;;5091394;28;20079;-38
2021/01/31 04:11:36;;;;;;;15.50;9.80;;;6.70;79.30;;;;;;5088890;28;20048;-40
2021/01/31 04:14:28;;;;;;;14.50;9.40;;;6.70;79.30;;;;;;5090300;28;20105;-41
2021/01/31 04:16:54;;;;;;;15.25;9.32;;;6.70;79.30;;;;;;5090999;28;20051;-39
2021/01/31 04:19:21;;;;;;;16.23;10.15;;;6.70;79.30;;;;;;5091602;28;20043;-40
2021/01/31 04:21:46;;;;;;;15.13;9.68;;;6.70;79.30;;;;;;5091802;28;20145;-41
2021/01/31 04:24:12;;;;;;;14.98;10.20;;;6.70;79.20;;;;;;5091440;28;20068;-39
2021/01/31 04:26:39;;;;;;;17.30;10.50;;;6.70;79.20;;;;;;5091383;28;20048;-40
2021/01/31 04:29:06;;;;;;;13.82;9.15;;;6.70;79.30;;;;;;5091562;28;20044;-40
2021/01/31 04:31:32;;;;;;;15.02;9.43;;;6.70;79.20;;;;;;5091415;28;20060;-39
2021/01/31 04:33:58;;;;;;;14.65;9.65;;;6.70;79.30;;;;;;5091456;28;20131;-40
2021/01/31 04:36:24;;;;;;;16.45;9.95;;;6.70;79.30;;;;;;5091138;28;20079;-39
2021/01/31 04:38:51;;;;;;;14.75;9.73;;;6.70;79.30;;;;;;5095799;28;20094;-39
2021/01/31 04:41:18;;;;;;;15.07;9.55;;;6.70;79.30;;;;;;5093139;28;20115;-39
2021/01/31 04:43:44;;;;;;;15.65;10.20;;;6.70;79.30;;;;;;5096021;28;20399;-39
2021/01/31 04:46:16;;;;;;;15.18;9.57;;;6.70;79.20;;;;;;5095564;28;20055;-39
2021/01/31 04:49:18;;;;;;;14.63;9.48;;;6.70;79.30;;;;;;5093479;28;20055;-40
2021/01/31 04:52:08;;;;;;;14.90;9.82;;;6.70;79.20;;;;;;5032304;28;20064;-39
2021/01/31 04:55:01;;;;;;;14.75;9.63;;;6.70;79.20;;;;;;5032716;28;20512;-38
2021/01/31 04:57:40;;;;;;;13.93;9.63;;;6.70;79.20;;;;;;5032859;28;20048;-40
2021/01/31 05:00:12;;;;;;;16.00;10.25;;;6.60;79.20;;;;;;5031461;28;20049;-40
2021/01/31 05:02:45;;;;;;;14.65;9.55;;;6.70;79.20;;;;;;5032676;28;20057;-38
2021/01/31 05:05:18;;;;;;;15.93;10.07;;;6.60;79.20;;;;;;5032849;28;20049;-40
2021/01/31 05:07:59;;;;;;;14.27;8.98;;;6.60;79.20;;;;;;5032598;28;20115;-41
2021/01/31 05:10:26;;;;;;;14.70;9.68;;;6.70;79.20;;;;;;5032224;28;20394;-40
2021/01/31 05:12:57;;;;;;;16.40;10.00;;;6.70;79.90;;;;;;5032558;28;20045;-39
2021/01/31 05:15:27;;;;;;;14.43;9.63;;;6.60;79.20;;;;;;5030539;28;20342;-38
2021/01/31 05:17:56;;;;;;;14.88;9.57;;;6.60;79.20;;;;;;5032739;28;20544;-39
2021/01/31 05:20:28;;;;;;;15.60;9.77;;;6.60;79.20;;;;;;5032072;28;20042;-38
2021/01/31 05:22:56;;;;;;;13.98;9.25;;;6.60;79.20;;;;;;5032477;28;20049;-41
2021/01/31 05:25:27;;;;;;;14.52;9.68;;;6.60;79.10;;;;;;5032105;28;20073;-39
2021/01/31 05:27:57;;;;;;;14.43;9.18;;;6.60;79.10;;;;;;5060469;28;20051;-39
2021/01/31 05:30:25;;;;;;;15.35;9.90;;;6.60;79.20;;;;;;5094155;28;20127;-39
2021/01/31 05:33:07;;;;;;;15.45;9.02;;;6.60;79.20;;;;;;5094342;28;20060;-40
2021/01/31 05:35:40;;;;;;;15.73;9.75;;;6.60;79.20;;;;;;5094443;28;20044;-36
2021/01/31 05:38:06;;;;;;;18.52;10.43;;;6.60;79.10;;;;;;5094568;28;20115;-40
2021/01/31 05:40:38;;;;;;;14.85;9.45;;;6.60;79.20;;;;;;5094518;28;20131;-38
2021/01/31 05:43:07;;;;;;;15.35;9.85;;;6.60;79.10;;;;;;5092615;28;20048;-40
2021/01/31 05:45:40;;;;;;;15.60;9.30;;;6.60;79.10;;;;;;5094839;28;20067;-40
2021/01/31 05:48:36;;;;;;;14.15;9.25;;;6.60;79.20;;;;;;5093922;28;20044;-38
2021/01/31 05:51:14;;;;;;;14.43;9.10;;;6.60;79.20;;;;;;5093022;28;20127;-40
2021/01/31 05:53:40;;;;;;;13.40;8.60;;;6.60;79.20;;;;;;5092614;28;20052;-39
2021/01/31 05:56:29;;;;;;;13.80;9.43;;;6.60;79.20;;;;;;5094029;28;20040;-40
2021/01/31 05:59:00;;;;;;;15.68;9.73;;;6.60;79.10;;;;;;5093988;28;20044;-38
2021/01/31 06:01:26;;;;;;;14.73;9.18;;;6.60;79.20;;;;;;5092761;28;20446;-39
2021/01/31 06:04:10;;;;;;;14.88;10.18;;;6.60;79.20;;;;;;5094484;28;20105;-39
2021/01/31 06:06:36;;;;;;;14.80;9.45;;;6.60;79.20;;;;;;5094246;28;20435;-39
2021/01/31 06:09:16;;;;;;;13.90;9.63;;;6.60;79.20;;;;;;5094981;28;20365;-40
2021/01/31 06:11:44;;;;;;;15.35;9.07;;;6.60;79.20;;;;;;5091393;28;20060;-40
2021/01/31 06:14:15;;;;;;;14.88;9.90;;;6.60;79.20;;;;;;5094394;28;20401;-39
2021/01/31 06:16:44;;;;;;;13.20;9.02;;;6.60;79.20;;;;;;5091519;28;20044;-39
2021/01/31 06:19:24;;;;;;;13.02;8.32;;;6.60;79.20;;;;;;5094359;28;20040;-40
2021/01/31 06:21:50;;;;;;;13.27;8.73;;;6.60;79.10;;;;;;5093354;28;20055;-38
2021/01/31 06:24:24;;;;;;;13.82;8.88;;;6.50;79.10;;;;;;5093582;28;20044;-38
2021/01/31 06:26:51;;;;;;;15.88;9.55;;;6.60;79.10;;;;;;5093763;28;20052;-39
2021/01/31 06:29:32;;;;;;;14.95;9.75;;;6.50;79.10;;;;;;5090603;28;20048;-40
2021/01/31 06:32:03;;;;;;;13.80;9.30;;;6.60;79.10;;;;;;5091084;28;20055;-39
2021/01/31 06:34:29;;;;;;;14.25;9.50;;;6.60;79.20;;;;;;5093618;28;20062;-39
2021/01/31 06:37:23;;;;;;;13.23;8.82;;;6.50;79.10;;;;;;5093871;28;20119;-39
2021/01/31 06:40:01;;;;;;;14.50;9.30;;;6.50;79.10;;;;;;5092122;28;20055;-40
2021/01/31 06:42:27;;;;;;;12.68;8.88;;;6.50;79.10;;;;;;5092028;28;20051;-40
2021/01/31 06:45:17;;;;;;;11.95;8.05;;;6.50;79.00;;;;;;5093382;28;20036;-40
2021/01/31 06:48:15;;;;;;;14.98;9.68;;;6.50;79.10;;;;;;5091568;28;20402;-38
2021/01/31 06:51:23;;;;;;;13.82;9.23;;;6.50;79.10;;;;;;5090771;28;20446;-38
2021/01/31 06:54:07;;;;;;;14.35;9.00;;;6.50;79.00;;;;;;5092192;28;20488;-39
2021/01/31 06:56:57;;;;;;;14.32;9.73;;;6.50;79.10;;;;;;5092096;28;20056;-40
2021/01/31 06:59:38;;;;;;;13.70;8.43;;;6.50;79.10;;;;;;5090371;28;20041;-39
2021/01/31 07:02:21;;;;;;;14.05;9.15;;;6.50;79.10;;;;;;5091533;28;20040;-39
2021/01/31 07:05:09;;;;;;;14.05;9.95;;;6.50;79.10;;;;;;5091151;28;20048;-37
2021/01/31 07:07:47;;;;;;;13.20;8.27;;;6.50;79.10;;;;;;5091738;28;20048;-40
2021/01/31 07:10:51;;;;;;;14.02;8.93;;;6.50;79.00;;;;;;5092011;28;20044;-38
2021/01/31 07:13:50;;;;;;;14.70;9.95;;;6.50;79.00;;;;;;5089019;28;20146;-37
2021/01/31 07:16:19;;;;;;;13.80;8.98;;;6.50;79.00;;;;;;5093117;28;20047;-38
2021/01/31 07:18:59;;;;;;;14.55;9.65;;;6.50;79.00;;;;;;5093285;28;20044;-40
2021/01/31 07:21:32;;;;;;;13.68;8.65;;;6.50;79.00;;;;;;5093286;28;20063;-39
2021/01/31 07:24:02;;;;;;;12.05;8.13;;;6.50;79.00;;;;;;5092873;28;20450;-39
2021/01/31 07:26:36;;;;;;;14.35;8.23;;;6.50;79.00;;;;;;5092263;28;20106;-39
2021/01/31 07:29:06;;;;;;;13.10;8.63;;;6.50;79.00;;;;;;5089540;28;20047;-39
2021/01/31 07:31:49;;;;;;;12.32;8.68;;;6.50;79.00;;;;;;5092506;28;20052;-38
2021/01/31 07:34:21;;;;;;;13.40;8.68;;;6.50;79.00;;;;;;5116937;27;20044;-39
2021/01/31 07:36:50;;;;;;;14.60;9.25;;;6.50;79.00;;;;;;5092720;28;20052;-36
2021/01/31 07:39:25;;;;;;;11.98;8.60;;;6.40;79.00;;;;;;5089622;28;20040;-39
2021/01/31 07:41:55;;;;;;;14.13;8.63;;;6.40;79.00;;;;;;5092252;28;20035;-38
2021/01/31 07:44:26;;;;;;;12.18;8.70;;;6.40;79.00;;;;;;5090312;28;20557;-39
2021/01/31 07:46:56;;;;;;;14.02;8.93;;;6.40;79.00;;;;;;5092352;28;20052;-39
2021/01/31 07:49:22;;;;;;;14.93;8.40;;;6.50;79.10;;;;;;5092617;28;20044;-39
2021/01/31 07:51:48;;;;;;;13.50;9.70;;;6.40;79.00;;;;;;5092714;28;20138;-38
2021/01/31 07:54:20;;;;;;;13.80;9.20;;;6.40;79.00;;;;;;5092146;28;20142;-40
2021/01/31 07:56:46;;;;;;;12.70;8.80;;;6.40;79.00;;;;;;5092033;28;20120;-39
2021/01/31 07:59:11;;;;;;;13.95;9.38;;;6.40;79.00;;;;;;5092693;28;20044;-40
2021/01/31 08:01:40;;;;;;;11.70;8.38;;;6.40;79.10;;;;;;5092257;28;20040;-40
2021/01/31 08:04:20;;;;;;;13.68;8.77;;;6.40;79.00;;;;;;5092107;28;20453;-39
2021/01/31 08:07:31;;;;;;;14.02;8.93;;;6.40;79.00;;;;;;5087796;28;20052;-38
2021/01/31 08:09:57;;;;;;;13.13;8.13;;;6.40;79.00;;;;;;5091205;28;20040;-39
2021/01/31 08:12:55;;;;;;;13.43;8.70;;;6.40;79.10;;;;;;5091992;28;20051;-42
2021/01/31 08:15:38;;;;;;;11.93;8.15;;;6.40;79.00;;;;;;5091069;28;20044;-38
2021/01/31 08:18:04;;;;;;;13.82;9.02;;;6.40;79.00;;;;;;5089485;28;20074;-41
2021/01/31 08:20:29;;;;;;;13.98;9.05;;;6.40;79.00;;;;;;5092625;28;20509;-39
2021/01/31 08:23:11;;;;;;;12.95;9.55;;;6.40;79.10;;;;;;5092556;28;20051;-40
2021/01/31 08:25:59;;;;;;;14.02;9.02;;;6.40;79.10;;;;;;5091951;28;20036;-40
2021/01/31 08:28:26;;;;;;;14.63;9.38;;;6.40;79.70;;;;;;5091657;28;20055;-37
2021/01/31 08:31:14;;;;;;;14.52;9.20;;;6.40;79.10;;;;;;5091270;28;20487;-41
2021/01/31 08:33:41;;;;;;;11.35;8.43;;;6.40;79.00;;;;;;5090830;28;20487;-44
2021/01/31 08:36:19;;;;;;;14.55;9.10;;;6.40;79.10;;;;;;5087828;28;20446;-46
2021/01/31 08:38:53;;;;;;;13.70;8.75;;;6.40;79.10;;;;;;5092266;28;20085;-43
2021/01/31 08:41:29;;;;;;;13.85;9.25;;;6.40;79.10;;;;;;5092415;28;20051;-41
2021/01/31 08:44:18;;;;;;;15.40;9.50;;;6.40;79.10;;;;;;5091910;28;20463;-42
2021/01/31 08:46:59;;;;;;;14.20;9.07;;;6.40;79.10;;;;;;5092518;28;20071;-42
2021/01/31 08:49:25;;;;;;;13.70;8.52;;;6.40;79.10;;;;;;5092130;28;20048;-44
2021/01/31 08:51:56;;;;;;;12.98;8.68;;;6.40;79.10;;;;;;5092114;28;20383;-44
2021/01/31 08:54:24;;;;;;;15.02;8.98;;;6.30;79.10;;;;;;5092371;28;20051;-44
2021/01/31 08:56:56;;;;;;;12.45;8.23;;;6.40;79.10;;;;;;5092338;28;20048;-43
2021/01/31 08:59:22;;;;;;;12.98;8.10;;;6.40;79.20;;;;;;5091909;28;20484;-38
2021/01/31 09:02:14;;;;;;;14.90;9.57;;;6.40;79.20;;;;;;5092212;28;20089;-44
2021/01/31 09:05:02;;;;;;;13.82;9.13;;;6.40;79.20;;;;;;5083621;28;20051;-42
2021/01/31 09:07:31;;;;;;;12.00;8.05;;;6.40;79.20;;;;;;5092226;28;20140;-42
2021/01/31 09:10:13;;;;;;;13.55;9.05;;;6.40;79.20;;;;;;5092206;28;20088;-42
2021/01/31 09:12:39;;;;;;;14.48;9.68;;;6.40;79.20;;;;;;5071884;28;20151;-45
2021/01/31 09:15:23;;;;;;;14.73;9.38;;;6.40;79.20;;;;;;5071515;28;20075;-43
2021/01/31 09:17:49;;;;;;;13.63;8.98;;;6.40;79.20;;;;;;5071788;28;20090;-46
2021/01/31 09:20:18;;;;;;;14.18;9.40;;;6.40;79.20;;;;;;5071704;28;20480;-46
2021/01/31 09:22:46;;;;;;;13.80;8.63;;;6.40;79.20;;;;;;5072298;28;20048;-43
2021/01/31 09:25:15;;;;;;;12.63;8.60;;;6.40;79.30;;;;;;5075362;28;20456;-45
2021/01/31 09:27:47;;;;;;;12.90;9.25;;;6.40;79.20;;;;;;5075163;28;20048;-43
2021/01/31 09:30:16;;;;;;;14.60;9.73;;;6.40;79.20;;;;;;5092618;28;20040;-42
2021/01/31 09:32:49;;;;;;;13.20;8.80;;;6.40;79.20;;;;;;5094682;28;20438;-37
2021/01/31 09:35:25;;;;;;;13.77;9.30;;;6.40;79.20;;;;;;5092525;28;20514;-39
2021/01/31 09:37:53;;;;;;;13.07;8.90;;;6.40;79.20;;;;;;5095085;28;20052;-37
2021/01/31 09:40:19;;;;;;;13.80;9.07;;;6.40;79.20;;;;;;5094847;28;20122;-41
2021/01/31 09:42:46;;;;;;;14.20;9.07;;;6.40;79.20;;;;;;5094657;28;20532;-39
2021/01/31 09:45:21;;;;;;;14.52;9.50;;;6.40;79.20;;;;;;5094522;28;20522;-41
2021/01/31 09:47:48;;;;;;;14.05;9.13;;;6.40;79.20;;;;;;5095065;28;20044;-37
2021/01/31 09:50:14;;;;;;;13.90;8.95;;;6.40;79.20;;;;;;5092020;28;20040;-42
2021/01/31 09:52:45;;;;;;;15.55;9.73;;;6.40;79.20;;;;;;5094441;28;20040;-43
2021/01/31 09:55:27;;;;;;;13.90;8.88;;;6.40;79.20;;;;;;5094708;28;20101;-41
2021/01/31 09:57:54;;;;;;;13.48;9.13;;;6.40;79.20;;;;;;5092153;28;20051;-42
2021/01/31 10:00:27;;;;;;;13.45;8.57;;;6.40;79.20;;;;;;5094574;28;20047;-41
2021/01/31 10:03:05;;;;;;;13.40;8.52;;;6.40;79.20;;;;;;5100111;28;20046;-42
2021/01/31 10:05:31;;;;;;;11.65;8.23;;;6.40;79.30;;;;;;5095622;28;20044;-42
2021/01/31 10:08:12;;;;;;;12.15;8.35;;;6.40;79.20;;;;;;5093270;28;20061;-41
2021/01/31 10:10:40;;;;;;;14.13;9.20;;;6.40;79.30;;;;;;5099316;28;20059;-37
2021/01/31 10:13:24;;;;;;;11.55;8.00;;;6.40;79.20;;;;;;5101671;28;20048;-40
2021/01/31 10:16:01;;;;;;;13.55;8.73;;;6.40;79.20;;;;;;5103398;28;20408;-38
2021/01/31 10:18:36;;;;;;;12.73;8.80;;;6.40;79.20;;;;;;5102481;28;20556;-40
2021/01/31 10:21:19;;;;;;;11.52;7.78;;;6.40;79.20;;;;;;5100365;28;20035;-41
2021/01/31 10:23:47;;;;;;;11.70;8.30;;;6.40;79.20;;;;;;5103326;28;20044;-41
2021/01/31 10:26:22;;;;;;;13.30;8.95;;;6.40;79.20;;;;;;5102439;28;20491;-37
2021/01/31 10:28:55;;;;;;;14.48;8.65;;;6.40;79.20;;;;;;5102583;28;20055;-37
2021/01/31 10:31:36;;;;;;;12.25;7.93;;;6.40;79.20;;;;;;5103155;28;20101;-40
2021/01/31 10:34:05;;;;;;;13.25;8.63;;;6.40;79.20;;;;;;5099956;28;20499;-43
2021/01/31 10:36:37;;;;;;;13.02;8.40;;;6.40;79.20;;;;;;5102890;28;20044;-42
2021/01/31 10:39:09;;;;;;;12.68;8.43;;;6.40;79.20;;;;;;5102851;28;20479;-41
2021/01/31 10:41:36;;;;;;;11.68;7.88;;;6.40;79.20;;;;;;5096897;28;20087;-37
2021/01/31 10:44:10;;;;;;;13.70;8.05;;;6.40;79.20;;;;;;5087203;28;20046;-40
2021/01/31 10:46:38;;;;;;;10.65;7.45;;;6.40;79.20;;;;;;5090857;28;20096;-38
2021/01/31 10:49:05;;;;;;;10.38;7.18;;;6.40;79.20;;;;;;5098294;28;20238;-43
2021/01/31 10:51:32;;;;;;;12.30;7.60;;;6.40;79.10;;;;;;5097318;28;20046;-38
2021/01/31 10:54:00;;;;;;;11.60;7.93;;;6.40;79.10;;;;;;5097927;28;20041;-41
2021/01/31 10:56:26;;;;;;;12.90;8.23;;;6.40;79.10;;;;;;5096666;28;20496;-41
2021/01/31 10:58:52;;;;;;;10.45;7.90;;;6.50;79.10;;;;;;5096646;28;20058;-39
2021/01/31 11:01:19;;;;;;;10.70;7.00;;;6.40;79.00;;;;;;5097863;28;20150;-38
2021/01/31 11:03:45;;;;;;;10.88;7.35;;;6.50;79.10;;;;;;5098667;28;20052;-41
2021/01/31 11:06:11;;;;;;;11.95;7.97;;;6.50;79.00;;;;;;5090285;28;20051;-39
2021/01/31 11:08:37;;;;;;;12.70;8.13;;;6.50;79.00;;;;;;5068046;28;20060;-39
2021/01/31 11:11:03;;;;;;;10.73;7.60;;;6.50;79.00;;;;;;5082936;28;20538;-41
2021/01/31 11:13:31;;;;;;;11.80;7.43;;;6.50;79.00;;;;;;5088184;28;20051;-39
2021/01/31 11:15:57;;;;;;;11.52;7.53;;;6.40;78.90;;;;;;5087121;28;20120;-40
2021/01/31 11:18:24;;;;;;;9.90;7.28;;;6.50;79.00;;;;;;5087817;28;20055;-40
2021/01/31 11:20:50;;;;;;;10.77;7.38;;;6.50;79.00;;;;;;5093176;28;20046;-39
2021/01/31 11:23:16;;;;;;;10.13;6.85;;;6.50;79.00;;;;;;5095097;28;20391;-39
2021/01/31 11:25:42;;;;;;;11.45;7.55;;;6.50;78.90;;;;;;5098395;28;20039;-42
2021/01/31 11:28:08;;;;;;;11.68;7.75;;;6.50;78.90;;;;;;5096328;28;20047;-39
2021/01/31 11:30:34;;;;;;;12.18;8.30;;;6.50;78.90;;;;;;5091732;28;20076;-41
2021/01/31 11:33:01;;;;;;;11.13;7.43;;;6.50;78.90;;;;;;5095057;28;20089;-39
2021/01/31 11:35:29;;;;;;;10.50;6.93;;;6.60;79.00;;;;;;5097490;28;20050;-39
2021/01/31 11:37:55;;;;;;;9.65;6.78;;;6.50;78.90;;;;;;5095951;28;20039;-40
2021/01/31 11:40:23;;;;;;;11.32;7.80;;;6.50;78.80;;;;;;5096600;28;20408;-38
2021/01/31 11:42:49;;;;;;;11.48;7.25;;;6.50;78.80;;;;;;5097879;28;20210;-41
2021/01/31 11:45:16;;;;;;;11.20;7.30;;;6.40;78.80;;;;;;5096800;28;20043;-39
2021/01/31 11:47:41;;;;;;;10.45;7.18;;;6.50;78.80;;;;;;5095508;28;20070;-38
2021/01/31 11:50:10;;;;;;;11.70;7.32;;;6.50;78.80;;;;;;5092858;28;20036;-40
2021/01/31 11:52:35;;;;;;;11.23;7.03;;;6.50;78.80;;;;;;5093446;28;20134;-39
2021/01/31 11:55:02;;;;;;;10.10;6.70;;;6.50;78.80;;;;;;5097717;28;20180;-41
2021/01/31 11:57:27;;;;;;;11.38;7.15;;;6.50;78.80;;;;;;5093818;28;20055;-37
2021/01/31 11:59:53;;;;;;;10.98;7.13;;;6.50;78.80;;;;;;5089432;28;20047;-39
2021/01/31 12:02:18;;;;;;;9.35;6.30;;;6.50;78.80;;;;;;5091625;28;20040;-44
2021/01/31 12:04:44;;;;;;;10.50;6.82;;;6.50;78.80;;;;;;5092932;28;20079;-38
2021/01/31 12:07:10;;;;;;;9.85;6.47;;;6.50;78.80;;;;;;5096743;28;20054;-40
2021/01/31 12:09:36;;;;;;;10.88;7.35;;;6.50;78.70;;;;;;5097780;28;20184;-40
2021/01/31 12:12:02;;;;;;;10.55;6.63;;;6.50;78.70;;;;;;5093299;28;20739;-40
2021/01/31 12:14:28;;;;;;;9.02;7.00;;;6.60;78.80;;;;;;5083210;28;20044;-38
2021/01/31 12:16:54;;;;;;;10.85;7.78;;;6.50;78.70;;;;;;5083577;28;20050;-40
2021/01/31 12:19:23;;;;;;;9.50;6.82;;;6.60;78.80;;;;;;5093313;28;20040;-40
2021/01/31 12:21:52;;;;;;;10.18;6.90;;;6.50;78.70;;;;;;5095964;28;20075;-37
2021/01/31 12:24:18;;;;;;;8.02;6.20;;;6.60;78.80;;;;;;5097236;28;20603;-38
2021/01/31 12:26:44;;;;;;;10.13;7.05;;;6.60;78.80;;;;;;5095882;28;20059;-39
2021/01/31 12:29:12;;;;;;;9.55;6.88;;;6.60;78.80;;;;;;5096719;28;20050;-39
2021/01/31 12:31:37;;;;;;;9.60;6.10;;;6.50;78.70;;;;;;5094545;28;20059;-39
2021/01/31 12:34:03;;;;;;;9.00;6.43;;;6.60;78.70;;;;;;5094201;28;20050;-39
2021/01/31 12:36:29;;;;;;;10.02;6.82;;;6.60;78.70;;;;;;5096332;28;20105;-39
2021/01/31 12:38:56;;;;;;;10.00;6.97;;;6.60;78.70;;;;;;5096958;28;20056;-38
2021/01/31 12:41:21;;;;;;;9.00;6.28;;;6.60;78.70;;;;;;5094212;28;20067;-38
2021/01/31 12:43:48;;;;;;;8.90;5.90;;;6.60;78.70;;;;;;5095662;28;20071;-38
2021/01/31 12:46:14;;;;;;;9.63;6.45;;;6.60;78.70;;;;;;5095747;28;20441;-38
2021/01/31 12:48:40;;;;;;;9.48;6.78;;;6.60;78.70;;;;;;5097284;28;20039;-42
2021/01/31 12:51:05;;;;;;;8.43;6.43;;;6.60;78.70;;;;;;5095328;28;20102;-43
2021/01/31 12:53:31;;;;;;;8.95;6.32;;;6.60;78.60;;;;;;5091559;28;20132;-39
2021/01/31 12:55:57;;;;;;;11.18;7.03;;;6.60;78.60;;;;;;5086228;28;20048;-39
2021/01/31 12:58:22;;;;;;;9.68;6.45;;;6.60;78.60;;;;;;5088282;28;20048;-38
2021/01/31 13:00:48;;;;;;;8.25;5.82;;;6.60;78.60;;;;;;5089997;28;20076;-39
2021/01/31 13:03:14;;;;;;;8.98;6.47;;;6.60;78.60;;;;;;5089029;28;20093;-43
2021/01/31 13:05:40;;;;;;;8.43;6.25;;;6.60;78.60;;;;;;5090984;28;20143;-42
2021/01/31 13:08:07;;;;;;;8.77;6.07;;;6.60;78.60;;;;;;5090972;28;20138;-42
2021/01/31 13:10:33;;;;;;;7.93;6.10;;;6.60;78.60;;;;;;5090504;28;20051;-40